sensor_id;sensor_type;location;lat;lon;timestamp;temperature;humidity
52245;DHT22;55759;51.586;-1.758;2022-08-06T00:01:34;13.20;58.30
52245;DHT22;55759;51.586;-1.758;2022-08-06T00:04:00;13.20;58.50
52245;DHT22;55759;51.586;-1.758;2022-08-06T00:06:26;13.20;58.60
52245;DHT22;55759;51.586;-1.758;2022-08-06T00:08:52;13.10;58.80
52245;DHT22;55759;51.586;-1.758;2022-08-06T00:11:18;13.10;58.80
52245;DHT22;55759;51.586;-1.758;2022-08-06T00:13:44;13.00;59.00
52245;DHT22;55759;51.586;-1.758;2022-08-06T00:16:10;13.00;59.30
52245;DHT22;55759;51.586;-1.758;2022-08-06T00:18:35;12.90;59.30
52245;DHT22;55759;51.586;-1.758;2022-08-06T00:21:01;12.90;59.50
52245;DHT22;55759;51.586;-1.758;2022-08-06T00:23:27;12.90;59.60
52245;DHT22;55759;51.586;-1.758;2022-08-06T00:25:53;12.80;59.80
52245;DHT22;55759;51.586;-1.758;2022-08-06T00:28:24;12.80;59.90
52245;DHT22;55759;51.586;-1.758;2022-08-06T00:30:50;12.70;60.00
52245;DHT22;55759;51.586;-1.758;2022-08-06T00:33:16;12.70;60.30
52245;DHT22;55759;51.586;-1.758;2022-08-06T00:35:43;12.60;60.60
52245;DHT22;55759;51.586;-1.758;2022-08-06T00:38:08;12.60;60.80
52245;DHT22;55759;51.586;-1.758;2022-08-06T00:40:35;12.50;61.00
52245;DHT22;55759;51.586;-1.758;2022-08-06T00:43:03;12.40;61.20
52245;DHT22;55759;51.586;-1.758;2022-08-06T00:45:33;12.40;61.40
52245;DHT22;55759;51.586;-1.758;2022-08-06T00:48:00;12.30;61.80
52245;DHT22;55759;51.586;-1.758;2022-08-06T00:50:26;12.20;61.90
52245;DHT22;55759;51.586;-1.758;2022-08-06T00:52:52;12.20;62.10
52245;DHT22;55759;51.586;-1.758;2022-08-06T00:55:17;12.20;62.30
52245;DHT22;55759;51.586;-1.758;2022-08-06T00:57:45;12.10;62.20
52245;DHT22;55759;51.586;-1.758;2022-08-06T01:00:11;12.10;62.20
52245;DHT22;55759;51.586;-1.758;2022-08-06T01:02:37;12.10;62.30
52245;DHT22;55759;51.586;-1.758;2022-08-06T01:05:03;12.10;62.40
52245;DHT22;55759;51.586;-1.758;2022-08-06T01:07:29;12.10;62.50
52245;DHT22;55759;51.586;-1.758;2022-08-06T01:09:54;12.10;62.70
52245;DHT22;55759;51.586;-1.758;2022-08-06T01:12:20;12.10;62.90
52245;DHT22;55759;51.586;-1.758;2022-08-06T01:14:46;12.10;62.80
52245;DHT22;55759;51.586;-1.758;2022-08-06T01:28:25;11.90;63.20
52245;DHT22;55759;51.586;-1.758;2022-08-06T01:30:57;11.90;63.40
52245;DHT22;55759;51.586;-1.758;2022-08-06T01:36:54;11.90;63.50
52245;DHT22;55759;51.586;-1.758;2022-08-06T01:39:22;11.90;63.70
52245;DHT22;55759;51.586;-1.758;2022-08-06T01:41:52;11.80;63.70
52245;DHT22;55759;51.586;-1.758;2022-08-06T01:44:22;11.80;63.80
52245;DHT22;55759;51.586;-1.758;2022-08-06T01:46:51;11.80;64.00
52245;DHT22;55759;51.586;-1.758;2022-08-06T01:49:20;11.80;64.10
52245;DHT22;55759;51.586;-1.758;2022-08-06T01:51:51;11.80;64.10
52245;DHT22;55759;51.586;-1.758;2022-08-06T01:54:18;11.70;64.20
52245;DHT22;55759;51.586;-1.758;2022-08-06T01:56:49;11.70;64.30
52245;DHT22;55759;51.586;-1.758;2022-08-06T01:59:17;11.70;64.40
52245;DHT22;55759;51.586;-1.758;2022-08-06T02:01:47;11.70;64.40
52245;DHT22;55759;51.586;-1.758;2022-08-06T02:04:17;11.60;64.50
52245;DHT22;55759;51.586;-1.758;2022-08-06T02:06:45;11.60;64.60
52245;DHT22;55759;51.586;-1.758;2022-08-06T02:09:14;11.60;64.80
52245;DHT22;55759;51.586;-1.758;2022-08-06T02:11:44;11.50;64.90
52245;DHT22;55759;51.586;-1.758;2022-08-06T02:14:13;11.50;65.10
52245;DHT22;55759;51.586;-1.758;2022-08-06T02:16:42;11.40;65.40
52245;DHT22;55759;51.586;-1.758;2022-08-06T02:19:11;11.40;65.40
52245;DHT22;55759;51.586;-1.758;2022-08-06T02:21:38;11.40;65.50
52245;DHT22;55759;51.586;-1.758;2022-08-06T02:24:07;11.30;65.60
52245;DHT22;55759;51.586;-1.758;2022-08-06T02:26:36;11.20;65.70
52245;DHT22;55759;51.586;-1.758;2022-08-06T02:29:04;11.20;65.90
52245;DHT22;55759;51.586;-1.758;2022-08-06T02:31:31;11.10;66.00
52245;DHT22;55759;51.586;-1.758;2022-08-06T02:33:57;11.00;66.20
52245;DHT22;55759;51.586;-1.758;2022-08-06T02:39:03;10.90;66.60
52245;DHT22;55759;51.586;-1.758;2022-08-06T02:41:47;10.80;66.80
52245;DHT22;55759;51.586;-1.758;2022-08-06T02:44:19;10.70;66.80
52245;DHT22;55759;51.586;-1.758;2022-08-06T02:46:52;10.70;66.90
52245;DHT22;55759;51.586;-1.758;2022-08-06T02:49:23;10.70;67.00
52245;DHT22;55759;51.586;-1.758;2022-08-06T02:52:20;10.60;67.00
52245;DHT22;55759;51.586;-1.758;2022-08-06T02:54:56;10.50;67.40
52245;DHT22;55759;51.586;-1.758;2022-08-06T02:57:35;10.50;67.50
52245;DHT22;55759;51.586;-1.758;2022-08-06T03:00:05;10.40;67.70
52245;DHT22;55759;51.586;-1.758;2022-08-06T03:02:33;10.40;68.20
52245;DHT22;55759;51.586;-1.758;2022-08-06T03:05:02;10.40;68.20
52245;DHT22;55759;51.586;-1.758;2022-08-06T03:07:30;10.30;68.40
52245;DHT22;55759;51.586;-1.758;2022-08-06T03:09:58;10.20;68.50
52245;DHT22;55759;51.586;-1.758;2022-08-06T03:12:24;10.20;68.60
52245;DHT22;55759;51.586;-1.758;2022-08-06T03:14:51;10.10;68.70
52245;DHT22;55759;51.586;-1.758;2022-08-06T03:17:19;10.10;68.70
52245;DHT22;55759;51.586;-1.758;2022-08-06T03:19:46;10.10;68.90
52245;DHT22;55759;51.586;-1.758;2022-08-06T03:22:14;10.00;68.90
52245;DHT22;55759;51.586;-1.758;2022-08-06T03:24:42;10.00;69.10
52245;DHT22;55759;51.586;-1.758;2022-08-06T03:27:10;9.90;69.20
52245;DHT22;55759;51.586;-1.758;2022-08-06T03:29:38;9.90;69.50
52245;DHT22;55759;51.586;-1.758;2022-08-06T03:32:07;9.90;69.70
52245;DHT22;55759;51.586;-1.758;2022-08-06T03:34:34;9.80;70.00
52245;DHT22;55759;51.586;-1.758;2022-08-06T03:37:02;9.80;70.00
52245;DHT22;55759;51.586;-1.758;2022-08-06T03:39:30;9.80;70.20
52245;DHT22;55759;51.586;-1.758;2022-08-06T03:41:57;9.70;70.40
52245;DHT22;55759;51.586;-1.758;2022-08-06T03:44:23;9.70;70.60
52245;DHT22;55759;51.586;-1.758;2022-08-06T03:46:55;9.60;70.70
52245;DHT22;55759;51.586;-1.758;2022-08-06T03:49:29;9.60;70.80
52245;DHT22;55759;51.586;-1.758;2022-08-06T03:51:59;9.60;70.90
52245;DHT22;55759;51.586;-1.758;2022-08-06T03:54:28;9.50;71.00
52245;DHT22;55759;51.586;-1.758;2022-08-06T03:56:59;9.50;71.10
52245;DHT22;55759;51.586;-1.758;2022-08-06T03:59:26;9.40;71.30
52245;DHT22;55759;51.586;-1.758;2022-08-06T04:01:54;9.40;71.40
52245;DHT22;55759;51.586;-1.758;2022-08-06T04:04:24;9.30;71.60
52245;DHT22;55759;51.586;-1.758;2022-08-06T04:06:50;9.30;71.80
52245;DHT22;55759;51.586;-1.758;2022-08-06T04:09:17;9.30;71.80
52245;DHT22;55759;51.586;-1.758;2022-08-06T04:11:44;9.20;71.90
52245;DHT22;55759;51.586;-1.758;2022-08-06T04:14:13;9.20;71.90
52245;DHT22;55759;51.586;-1.758;2022-08-06T04:16:39;9.20;72.00
52245;DHT22;55759;51.586;-1.758;2022-08-06T04:19:06;9.20;72.20
52245;DHT22;55759;51.586;-1.758;2022-08-06T04:21:33;9.10;72.30
52245;DHT22;55759;51.586;-1.758;2022-08-06T04:23:58;9.10;72.50
52245;DHT22;55759;51.586;-1.758;2022-08-06T04:26:24;9.10;72.60
52245;DHT22;55759;51.586;-1.758;2022-08-06T04:28:55;9.10;72.70
52245;DHT22;55759;51.586;-1.758;2022-08-06T04:31:22;9.00;72.70
52245;DHT22;55759;51.586;-1.758;2022-08-06T04:33:50;9.00;72.80
52245;DHT22;55759;51.586;-1.758;2022-08-06T04:36:17;9.00;73.00
52245;DHT22;55759;51.586;-1.758;2022-08-06T04:38:42;9.00;73.20
52245;DHT22;55759;51.586;-1.758;2022-08-06T04:41:09;9.00;73.20
52245;DHT22;55759;51.586;-1.758;2022-08-06T04:43:36;8.90;73.10
52245;DHT22;55759;51.586;-1.758;2022-08-06T04:46:02;8.90;73.20
52245;DHT22;55759;51.586;-1.758;2022-08-06T04:48:28;8.90;73.30
52245;DHT22;55759;51.586;-1.758;2022-08-06T04:50:54;8.90;73.40
52245;DHT22;55759;51.586;-1.758;2022-08-06T04:53:21;8.90;73.50
52245;DHT22;55759;51.586;-1.758;2022-08-06T04:55:47;8.90;73.60
52245;DHT22;55759;51.586;-1.758;2022-08-06T04:58:15;8.90;73.60
52245;DHT22;55759;51.586;-1.758;2022-08-06T05:00:43;8.90;73.50
52245;DHT22;55759;51.586;-1.758;2022-08-06T05:03:09;8.90;73.60
52245;DHT22;55759;51.586;-1.758;2022-08-06T05:06:05;8.90;73.60
52245;DHT22;55759;51.586;-1.758;2022-08-06T05:08:37;8.90;73.80
52245;DHT22;55759;51.586;-1.758;2022-08-06T05:11:40;9.00;73.70
52245;DHT22;55759;51.586;-1.758;2022-08-06T05:14:13;9.00;73.90
52245;DHT22;55759;51.586;-1.758;2022-08-06T05:16:44;9.10;73.90
52245;DHT22;55759;51.586;-1.758;2022-08-06T05:19:19;9.10;73.90
52245;DHT22;55759;51.586;-1.758;2022-08-06T05:21:47;9.20;73.90
52245;DHT22;55759;51.586;-1.758;2022-08-06T05:24:14;9.30;73.90
52245;DHT22;55759;51.586;-1.758;2022-08-06T05:26:40;9.40;73.90
52245;DHT22;55759;51.586;-1.758;2022-08-06T05:29:06;9.40;73.90
52245;DHT22;55759;51.586;-1.758;2022-08-06T05:31:36;9.50;73.80
52245;DHT22;55759;51.586;-1.758;2022-08-06T05:34:03;9.60;73.70
52245;DHT22;55759;51.586;-1.758;2022-08-06T05:36:29;9.70;73.60
52245;DHT22;55759;51.586;-1.758;2022-08-06T05:38:55;9.80;73.50
52245;DHT22;55759;51.586;-1.758;2022-08-06T05:41:21;9.80;73.50
52245;DHT22;55759;51.586;-1.758;2022-08-06T05:43:47;10.00;73.40
52245;DHT22;55759;51.586;-1.758;2022-08-06T05:46:23;10.10;73.20
52245;DHT22;55759;51.586;-1.758;2022-08-06T05:49:00;10.30;73.00
52245;DHT22;55759;51.586;-1.758;2022-08-06T05:57:19;10.70;72.20
52245;DHT22;55759;51.586;-1.758;2022-08-06T05:59:50;10.80;72.00
52245;DHT22;55759;51.586;-1.758;2022-08-06T06:02:18;10.90;71.80
52245;DHT22;55759;51.586;-1.758;2022-08-06T06:04:45;11.10;71.40
52245;DHT22;55759;51.586;-1.758;2022-08-06T06:07:13;11.10;71.10
52245;DHT22;55759;51.586;-1.758;2022-08-06T06:09:41;11.30;70.90
52245;DHT22;55759;51.586;-1.758;2022-08-06T06:12:08;11.40;70.60
52245;DHT22;55759;51.586;-1.758;2022-08-06T06:14:42;11.60;70.10
52245;DHT22;55759;51.586;-1.758;2022-08-06T06:17:43;11.70;69.90
52245;DHT22;55759;51.586;-1.758;2022-08-06T06:20:39;11.90;69.70
52245;DHT22;55759;51.586;-1.758;2022-08-06T06:23:09;12.10;69.10
52245;DHT22;55759;51.586;-1.758;2022-08-06T06:34:09;12.70;67.40
52245;DHT22;55759;51.586;-1.758;2022-08-06T06:39:23;13.00;66.70
52245;DHT22;55759;51.586;-1.758;2022-08-06T06:42:19;13.10;67.20
52245;DHT22;55759;51.586;-1.758;2022-08-06T06:45:02;13.20;66.80
52245;DHT22;55759;51.586;-1.758;2022-08-06T06:50:20;13.50;66.20
52245;DHT22;55759;51.586;-1.758;2022-08-06T06:52:49;13.60;66.20
52245;DHT22;55759;51.586;-1.758;2022-08-06T06:55:54;13.70;66.00
52245;DHT22;55759;51.586;-1.758;2022-08-06T06:58:39;13.80;65.70
52245;DHT22;55759;51.586;-1.758;2022-08-06T07:01:09;14.00;65.50
52245;DHT22;55759;51.586;-1.758;2022-08-06T07:03:38;14.10;65.40
52245;DHT22;55759;51.586;-1.758;2022-08-06T07:06:06;14.20;65.10
52245;DHT22;55759;51.586;-1.758;2022-08-06T07:08:37;14.30;65.20
52245;DHT22;55759;51.586;-1.758;2022-08-06T07:11:06;14.40;64.50
52245;DHT22;55759;51.586;-1.758;2022-08-06T07:13:32;14.60;64.40
52245;DHT22;55759;51.586;-1.758;2022-08-06T07:15:59;14.70;64.70
52245;DHT22;55759;51.586;-1.758;2022-08-06T07:18:27;14.80;64.50
52245;DHT22;55759;51.586;-1.758;2022-08-06T07:20:53;14.90;64.30
52245;DHT22;55759;51.586;-1.758;2022-08-06T07:23:20;15.10;63.80
52245;DHT22;55759;51.586;-1.758;2022-08-06T07:25:48;15.20;63.80
52245;DHT22;55759;51.586;-1.758;2022-08-06T07:28:14;15.40;63.80
52245;DHT22;55759;51.586;-1.758;2022-08-06T07:30:41;15.50;63.60
52245;DHT22;55759;51.586;-1.758;2022-08-06T07:33:09;15.70;62.90
52245;DHT22;55759;51.586;-1.758;2022-08-06T07:35:37;15.80;62.60
52245;DHT22;55759;51.586;-1.758;2022-08-06T07:38:06;15.90;61.90
52245;DHT22;55759;51.586;-1.758;2022-08-06T07:40:43;16.00;62.10
52245;DHT22;55759;51.586;-1.758;2022-08-06T07:43:15;16.10;61.10
52245;DHT22;55759;51.586;-1.758;2022-08-06T07:45:41;16.10;61.30
52245;DHT22;55759;51.586;-1.758;2022-08-06T07:48:12;16.20;61.40
52245;DHT22;55759;51.586;-1.758;2022-08-06T07:50:47;16.30;60.90
52245;DHT22;55759;51.586;-1.758;2022-08-06T07:53:14;16.40;60.50
52245;DHT22;55759;51.586;-1.758;2022-08-06T07:55:41;16.50;60.20
52245;DHT22;55759;51.586;-1.758;2022-08-06T07:58:09;16.60;59.80
52245;DHT22;55759;51.586;-1.758;2022-08-06T08:00:36;16.70;59.40
52245;DHT22;55759;51.586;-1.758;2022-08-06T08:03:03;16.80;59.30
52245;DHT22;55759;51.586;-1.758;2022-08-06T08:05:48;16.90;58.40
52245;DHT22;55759;51.586;-1.758;2022-08-06T08:08:33;17.00;58.10
52245;DHT22;55759;51.586;-1.758;2022-08-06T08:10:59;17.10;57.50
52245;DHT22;55759;51.586;-1.758;2022-08-06T08:13:26;17.10;57.70
52245;DHT22;55759;51.586;-1.758;2022-08-06T08:15:55;17.20;56.70
52245;DHT22;55759;51.586;-1.758;2022-08-06T08:18:21;17.30;56.40
52245;DHT22;55759;51.586;-1.758;2022-08-06T08:20:52;17.40;55.80
52245;DHT22;55759;51.586;-1.758;2022-08-06T08:23:19;17.50;55.30
52245;DHT22;55759;51.586;-1.758;2022-08-06T08:25:45;17.60;55.10
52245;DHT22;55759;51.586;-1.758;2022-08-06T08:28:11;17.70;54.40
52245;DHT22;55759;51.586;-1.758;2022-08-06T08:30:38;17.80;54.20
52245;DHT22;55759;51.586;-1.758;2022-08-06T08:33:04;17.90;54.50
52245;DHT22;55759;51.586;-1.758;2022-08-06T08:35:30;18.10;53.50
52245;DHT22;55759;51.586;-1.758;2022-08-06T08:37:56;18.20;53.10
52245;DHT22;55759;51.586;-1.758;2022-08-06T08:40:22;18.30;52.60
52245;DHT22;55759;51.586;-1.758;2022-08-06T08:42:50;18.50;51.40
52245;DHT22;55759;51.586;-1.758;2022-08-06T08:45:21;18.50;49.50
52245;DHT22;55759;51.586;-1.758;2022-08-06T08:47:53;18.60;49.90
52245;DHT22;55759;51.586;-1.758;2022-08-06T08:50:21;18.60;49.10
52245;DHT22;55759;51.586;-1.758;2022-08-06T08:52:50;18.70;46.90
52245;DHT22;55759;51.586;-1.758;2022-08-06T08:55:18;18.80;46.30
52245;DHT22;55759;51.586;-1.758;2022-08-06T08:57:47;19.00;45.50
52245;DHT22;55759;51.586;-1.758;2022-08-06T09:00:13;19.10;44.30
52245;DHT22;55759;51.586;-1.758;2022-08-06T09:02:40;19.20;44.40
52245;DHT22;55759;51.586;-1.758;2022-08-06T09:05:07;19.30;44.10
52245;DHT22;55759;51.586;-1.758;2022-08-06T09:07:33;19.30;43.80
52245;DHT22;55759;51.586;-1.758;2022-08-06T09:10:00;19.40;42.70
52245;DHT22;55759;51.586;-1.758;2022-08-06T09:12:26;19.50;43.20
52245;DHT22;55759;51.586;-1.758;2022-08-06T09:14:51;19.60;42.10
52245;DHT22;55759;51.586;-1.758;2022-08-06T09:17:17;19.80;42.00
52245;DHT22;55759;51.586;-1.758;2022-08-06T09:19:43;19.80;40.20
52245;DHT22;55759;51.586;-1.758;2022-08-06T09:22:10;20.00;39.70
52245;DHT22;55759;51.586;-1.758;2022-08-06T09:24:37;20.00;40.50
52245;DHT22;55759;51.586;-1.758;2022-08-06T09:27:14;20.10;39.80
52245;DHT22;55759;51.586;-1.758;2022-08-06T09:29:52;20.10;40.20
52245;DHT22;55759;51.586;-1.758;2022-08-06T09:32:40;20.20;39.60
52245;DHT22;55759;51.586;-1.758;2022-08-06T09:35:19;20.20;39.40
52245;DHT22;55759;51.586;-1.758;2022-08-06T09:37:46;20.20;39.50
52245;DHT22;55759;51.586;-1.758;2022-08-06T09:40:14;20.20;39.50
52245;DHT22;55759;51.586;-1.758;2022-08-06T09:42:42;20.30;39.60
52245;DHT22;55759;51.586;-1.758;2022-08-06T09:45:13;20.40;39.80
52245;DHT22;55759;51.586;-1.758;2022-08-06T09:47:39;20.60;38.60
52245;DHT22;55759;51.586;-1.758;2022-08-06T09:50:05;20.70;38.10
52245;DHT22;55759;51.586;-1.758;2022-08-06T09:52:32;20.70;38.20
52245;DHT22;55759;51.586;-1.758;2022-08-06T09:54:57;20.80;38.00
52245;DHT22;55759;51.586;-1.758;2022-08-06T09:57:24;20.90;37.90
52245;DHT22;55759;51.586;-1.758;2022-08-06T09:59:51;20.90;37.80
52245;DHT22;55759;51.586;-1.758;2022-08-06T10:02:19;20.90;37.40
52245;DHT22;55759;51.586;-1.758;2022-08-06T10:04:47;21.00;36.90
52245;DHT22;55759;51.586;-1.758;2022-08-06T10:07:14;21.00;37.20
52245;DHT22;55759;51.586;-1.758;2022-08-06T10:09:52;21.10;37.60
52245;DHT22;55759;51.586;-1.758;2022-08-06T10:12:23;21.20;37.30
52245;DHT22;55759;51.586;-1.758;2022-08-06T10:14:50;21.40;36.40
52245;DHT22;55759;51.586;-1.758;2022-08-06T10:17:17;21.40;36.80
52245;DHT22;55759;51.586;-1.758;2022-08-06T10:22:33;21.70;36.20
52245;DHT22;55759;51.586;-1.758;2022-08-06T10:25:01;21.80;36.70
52245;DHT22;55759;51.586;-1.758;2022-08-06T10:27:34;21.70;36.10
52245;DHT22;55759;51.586;-1.758;2022-08-06T10:30:05;21.70;36.30
52245;DHT22;55759;51.586;-1.758;2022-08-06T10:35:08;21.70;36.10
52245;DHT22;55759;51.586;-1.758;2022-08-06T10:37:37;21.70;36.60
52245;DHT22;55759;51.586;-1.758;2022-08-06T10:40:04;21.90;36.70
52245;DHT22;55759;51.586;-1.758;2022-08-06T10:42:31;22.10;36.40
52245;DHT22;55759;51.586;-1.758;2022-08-06T10:44:58;22.40;35.40
52245;DHT22;55759;51.586;-1.758;2022-08-06T10:47:24;22.60;35.40
52245;DHT22;55759;51.586;-1.758;2022-08-06T10:49:52;22.80;35.40
52245;DHT22;55759;51.586;-1.758;2022-08-06T10:52:19;23.10;34.80
52245;DHT22;55759;51.586;-1.758;2022-08-06T10:54:45;23.40;34.30
52245;DHT22;55759;51.586;-1.758;2022-08-06T10:57:11;23.70;33.30
52245;DHT22;55759;51.586;-1.758;2022-08-06T10:59:41;24.20;33.10
52245;DHT22;55759;51.586;-1.758;2022-08-06T11:04:57;26.00;30.30
52245;DHT22;55759;51.586;-1.758;2022-08-06T11:13:08;29.40;26.30
52245;DHT22;55759;51.586;-1.758;2022-08-06T11:15:37;30.70;24.60
52245;DHT22;55759;51.586;-1.758;2022-08-06T11:18:08;31.70;23.50
52245;DHT22;55759;51.586;-1.758;2022-08-06T11:20:34;32.50;23.00
52245;DHT22;55759;51.586;-1.758;2022-08-06T11:23:22;33.60;21.80
52245;DHT22;55759;51.586;-1.758;2022-08-06T11:25:54;34.70;20.80
52245;DHT22;55759;51.586;-1.758;2022-08-06T11:31:07;36.80;18.90
52245;DHT22;55759;51.586;-1.758;2022-08-06T11:36:02;38.10;17.40
52245;DHT22;55759;51.586;-1.758;2022-08-06T11:41:22;39.10;16.70
52245;DHT22;55759;51.586;-1.758;2022-08-06T11:46:25;39.10;16.40
52245;DHT22;55759;51.586;-1.758;2022-08-06T12:02:10;42.50;14.40
52245;DHT22;55759;51.586;-1.758;2022-08-06T12:07:19;44.10;13.50
52245;DHT22;55759;51.586;-1.758;2022-08-06T12:09:59;44.60;13.20
52245;DHT22;55759;51.586;-1.758;2022-08-06T12:12:46;44.90;13.00
52245;DHT22;55759;51.586;-1.758;2022-08-06T12:17:58;43.40;13.40
52245;DHT22;55759;51.586;-1.758;2022-08-06T12:20:42;43.30;13.60
52245;DHT22;55759;51.586;-1.758;2022-08-06T12:23:13;43.90;13.30
52245;DHT22;55759;51.586;-1.758;2022-08-06T12:25:44;44.10;13.00
52245;DHT22;55759;51.586;-1.758;2022-08-06T12:28:11;44.00;12.90
52245;DHT22;55759;51.586;-1.758;2022-08-06T12:31:05;44.30;12.90
52245;DHT22;55759;51.586;-1.758;2022-08-06T12:33:30;45.10;12.60
52245;DHT22;55759;51.586;-1.758;2022-08-06T12:35:57;45.60;12.40
52245;DHT22;55759;51.586;-1.758;2022-08-06T12:38:25;46.00;12.20
52245;DHT22;55759;51.586;-1.758;2022-08-06T12:43:22;46.90;11.60
52245;DHT22;55759;51.586;-1.758;2022-08-06T12:45:56;46.90;11.40
52245;DHT22;55759;51.586;-1.758;2022-08-06T12:48:22;46.80;11.50
52245;DHT22;55759;51.586;-1.758;2022-08-06T12:50:48;46.70;11.50
52245;DHT22;55759;51.586;-1.758;2022-08-06T12:53:16;46.70;11.40
52245;DHT22;55759;51.586;-1.758;2022-08-06T12:55:50;46.80;11.50
52245;DHT22;55759;51.586;-1.758;2022-08-06T12:58:22;47.30;11.10
52245;DHT22;55759;51.586;-1.758;2022-08-06T13:00:54;47.40;11.20
52245;DHT22;55759;51.586;-1.758;2022-08-06T13:03:22;48.00;11.20
52245;DHT22;55759;51.586;-1.758;2022-08-06T13:05:50;48.30;11.10
52245;DHT22;55759;51.586;-1.758;2022-08-06T13:08:19;48.90;10.90
52245;DHT22;55759;51.586;-1.758;2022-08-06T13:10:50;49.40;10.70
52245;DHT22;55759;51.586;-1.758;2022-08-06T13:13:16;49.10;10.50
52245;DHT22;55759;51.586;-1.758;2022-08-06T13:15:47;49.10;10.70
52245;DHT22;55759;51.586;-1.758;2022-08-06T13:18:24;49.20;10.80
52245;DHT22;55759;51.586;-1.758;2022-08-06T13:20:50;49.60;10.50
52245;DHT22;55759;51.586;-1.758;2022-08-06T13:23:48;50.00;10.50
52245;DHT22;55759;51.586;-1.758;2022-08-06T13:26:18;50.00;10.40
52245;DHT22;55759;51.586;-1.758;2022-08-06T13:29:11;48.90;10.80
52245;DHT22;55759;51.586;-1.758;2022-08-06T13:31:39;49.00;10.80
52245;DHT22;55759;51.586;-1.758;2022-08-06T13:34:08;48.50;11.10
52245;DHT22;55759;51.586;-1.758;2022-08-06T13:36:35;48.80;11.20
52245;DHT22;55759;51.586;-1.758;2022-08-06T13:39:27;48.90;11.20
52245;DHT22;55759;51.586;-1.758;2022-08-06T13:44:35;49.60;10.90
52245;DHT22;55759;51.586;-1.758;2022-08-06T13:47:04;50.00;10.80
52245;DHT22;55759;51.586;-1.758;2022-08-06T13:49:30;50.20;10.60
52245;DHT22;55759;51.586;-1.758;2022-08-06T13:51:56;50.10;10.60
52245;DHT22;55759;51.586;-1.758;2022-08-06T13:54:23;50.00;11.00
52245;DHT22;55759;51.586;-1.758;2022-08-06T13:56:50;50.60;10.90
52245;DHT22;55759;51.586;-1.758;2022-08-06T13:59:17;51.40;10.70
52245;DHT22;55759;51.586;-1.758;2022-08-06T14:01:45;51.90;10.10
52245;DHT22;55759;51.586;-1.758;2022-08-06T14:04:16;52.00;10.40
52245;DHT22;55759;51.586;-1.758;2022-08-06T14:06:43;52.10;10.10
52245;DHT22;55759;51.586;-1.758;2022-08-06T14:09:10;51.90;9.90
52245;DHT22;55759;51.586;-1.758;2022-08-06T14:11:36;51.30;10.10
52245;DHT22;55759;51.586;-1.758;2022-08-06T14:14:02;50.90;10.20
52245;DHT22;55759;51.586;-1.758;2022-08-06T14:16:27;50.80;10.30
52245;DHT22;55759;51.586;-1.758;2022-08-06T14:18:53;51.30;10.20
52245;DHT22;55759;51.586;-1.758;2022-08-06T14:21:20;51.60;9.90
52245;DHT22;55759;51.586;-1.758;2022-08-06T14:23:46;51.20;10.10
52245;DHT22;55759;51.586;-1.758;2022-08-06T14:26:12;51.50;10.20
52245;DHT22;55759;51.586;-1.758;2022-08-06T14:28:37;51.30;9.90
52245;DHT22;55759;51.586;-1.758;2022-08-06T14:31:03;50.30;10.30
52245;DHT22;55759;51.586;-1.758;2022-08-06T14:33:29;50.30;10.50
52245;DHT22;55759;51.586;-1.758;2022-08-06T14:35:55;50.70;10.30
52245;DHT22;55759;51.586;-1.758;2022-08-06T14:38:21;51.00;10.30
52245;DHT22;55759;51.586;-1.758;2022-08-06T14:40:47;51.50;10.00
52245;DHT22;55759;51.586;-1.758;2022-08-06T14:43:31;52.00;9.80
52245;DHT22;55759;51.586;-1.758;2022-08-06T14:46:15;52.60;9.80
52245;DHT22;55759;51.586;-1.758;2022-08-06T14:48:46;53.10;9.60
52245;DHT22;55759;51.586;-1.758;2022-08-06T14:51:12;53.00;9.40
52245;DHT22;55759;51.586;-1.758;2022-08-06T14:53:37;52.70;9.50
52245;DHT22;55759;51.586;-1.758;2022-08-06T14:56:03;52.60;9.50
52245;DHT22;55759;51.586;-1.758;2022-08-06T14:58:29;52.40;9.40
52245;DHT22;55759;51.586;-1.758;2022-08-06T15:00:55;51.60;9.50
52245;DHT22;55759;51.586;-1.758;2022-08-06T15:03:21;51.40;9.60
52245;DHT22;55759;51.586;-1.758;2022-08-06T15:05:47;51.10;9.80
52245;DHT22;55759;51.586;-1.758;2022-08-06T15:08:13;51.20;9.90
52245;DHT22;55759;51.586;-1.758;2022-08-06T15:10:40;51.70;10.10
52245;DHT22;55759;51.586;-1.758;2022-08-06T15:13:05;52.40;9.70
52245;DHT22;55759;51.586;-1.758;2022-08-06T15:15:32;53.10;9.40
52245;DHT22;55759;51.586;-1.758;2022-08-06T15:17:58;53.80;9.50
52245;DHT22;55759;51.586;-1.758;2022-08-06T15:20:24;54.00;9.10
52245;DHT22;55759;51.586;-1.758;2022-08-06T15:22:50;54.10;8.70
52245;DHT22;55759;51.586;-1.758;2022-08-06T15:25:16;53.50;8.90
52245;DHT22;55759;51.586;-1.758;2022-08-06T15:27:44;53.20;9.00
52245;DHT22;55759;51.586;-1.758;2022-08-06T15:30:11;53.20;9.10
52245;DHT22;55759;51.586;-1.758;2022-08-06T15:32:37;53.40;9.30
52245;DHT22;55759;51.586;-1.758;2022-08-06T15:35:03;53.20;9.20
52245;DHT22;55759;51.586;-1.758;2022-08-06T15:37:29;53.00;9.60
52245;DHT22;55759;51.586;-1.758;2022-08-06T15:39:54;53.00;9.60
52245;DHT22;55759;51.586;-1.758;2022-08-06T15:42:21;53.10;9.50
52245;DHT22;55759;51.586;-1.758;2022-08-06T15:44:49;53.50;9.30
52245;DHT22;55759;51.586;-1.758;2022-08-06T15:47:15;53.50;9.60
52245;DHT22;55759;51.586;-1.758;2022-08-06T15:49:41;53.60;9.30
52245;DHT22;55759;51.586;-1.758;2022-08-06T15:52:07;53.10;9.40
52245;DHT22;55759;51.586;-1.758;2022-08-06T15:54:34;52.10;9.70
52245;DHT22;55759;51.586;-1.758;2022-08-06T15:57:00;52.00;10.00
52245;DHT22;55759;51.586;-1.758;2022-08-06T15:59:28;52.00;9.80
52245;DHT22;55759;51.586;-1.758;2022-08-06T16:01:54;52.30;9.80
52245;DHT22;55759;51.586;-1.758;2022-08-06T16:07:16;52.00;9.70
52245;DHT22;55759;51.586;-1.758;2022-08-06T16:09:47;51.30;10.00
52245;DHT22;55759;51.586;-1.758;2022-08-06T16:16:40;50.20;10.10
52245;DHT22;55759;51.586;-1.758;2022-08-06T16:19:14;49.70;10.30
52245;DHT22;55759;51.586;-1.758;2022-08-06T16:21:46;50.10;10.40
52245;DHT22;55759;51.586;-1.758;2022-08-06T16:30:35;50.20;10.20
52245;DHT22;55759;51.586;-1.758;2022-08-06T16:33:04;49.60;10.60
52245;DHT22;55759;51.586;-1.758;2022-08-06T16:35:53;49.00;10.70
52245;DHT22;55759;51.586;-1.758;2022-08-06T16:38:46;48.70;10.60
52245;DHT22;55759;51.586;-1.758;2022-08-06T16:41:43;48.70;10.70
52245;DHT22;55759;51.586;-1.758;2022-08-06T16:44:09;48.10;10.70
52245;DHT22;55759;51.586;-1.758;2022-08-06T16:46:40;47.40;11.30
52245;DHT22;55759;51.586;-1.758;2022-08-06T16:49:11;47.40;11.00
52245;DHT22;55759;51.586;-1.758;2022-08-06T16:51:39;47.20;11.30
52245;DHT22;55759;51.586;-1.758;2022-08-06T16:54:10;47.00;11.20
52245;DHT22;55759;51.586;-1.758;2022-08-06T16:56:39;46.70;11.50
52245;DHT22;55759;51.586;-1.758;2022-08-06T16:59:14;46.90;11.60
52245;DHT22;55759;51.586;-1.758;2022-08-06T17:01:50;47.20;11.30
52245;DHT22;55759;51.586;-1.758;2022-08-06T17:04:34;47.00;11.30
52245;DHT22;55759;51.586;-1.758;2022-08-06T17:07:03;47.00;11.30
52245;DHT22;55759;51.586;-1.758;2022-08-06T17:12:50;47.70;11.20
52245;DHT22;55759;51.586;-1.758;2022-08-06T17:22:58;46.80;11.30
52245;DHT22;55759;51.586;-1.758;2022-08-06T17:25:28;47.00;11.20